createdAt,value
2022-08-01T00:01:38.141Z,9.27
2022-08-01T00:04:05.892Z,9.40
2022-08-01T00:06:33.325Z,7.65
2022-08-01T00:09:00.680Z,10.60
2022-08-01T00:11:28.209Z,10.00
2022-08-01T00:13:55.542Z,9.35
2022-08-01T00:16:23.970Z,7.95
2022-08-01T00:18:52.492Z,9.50
2022-08-01T00:21:19.589Z,8.60
2022-08-01T00:23:46.991Z,7.93
2022-08-01T00:26:15.002Z,11.38
2022-08-01T00:28:42.830Z,12.52
2022-08-01T00:31:10.249Z,9.68
2022-08-01T00:33:37.517Z,10.55
2022-08-01T00:36:07.461Z,9.35
2022-08-01T00:38:34.875Z,10.95
2022-08-01T00:41:02.221Z,11.65
2022-08-01T00:43:29.610Z,10.20
2022-08-01T00:45:56.771Z,9.25
2022-08-01T00:48:24.027Z,9.60
2022-08-01T00:50:51.657Z,10.38
2022-08-01T00:53:19.253Z,14.35
2022-08-01T00:55:48.099Z,14.68
2022-08-01T00:58:15.905Z,15.10
2022-08-01T01:00:53.784Z,12.93
2022-08-01T01:03:26.295Z,13.90
2022-08-01T01:06:13.245Z,13.65
2022-08-01T01:09:21.892Z,14.63
2022-08-01T01:12:04.645Z,14.82
2022-08-01T01:14:47.975Z,14.45
2022-08-01T01:17:49.658Z,13.15
2022-08-01T01:20:09.410Z,16.55
2022-08-01T01:22:54.892Z,14.05
2022-08-01T01:25:42.280Z,13.52
2022-08-01T01:28:56.920Z,16.55
2022-08-01T01:31:26.502Z,17.67
2022-08-01T01:33:56.315Z,18.80
2022-08-01T01:36:26.660Z,16.90
2022-08-01T01:38:55.596Z,24.80
2022-08-01T01:41:23.775Z,15.75
2022-08-01T01:43:52.396Z,18.60
2022-08-01T01:46:24.995Z,22.60
2022-08-01T01:48:55.290Z,18.30
2022-08-01T01:51:25.648Z,17.15
2022-08-01T01:53:55.920Z,18.80
2022-08-01T01:56:24.985Z,15.32
2022-08-01T01:58:59.234Z,17.05
2022-08-01T02:01:58.222Z,16.00
2022-08-01T02:04:18.051Z,15.55
2022-08-01T02:06:48.166Z,16.05
2022-08-01T02:09:21.035Z,19.70
2022-08-01T02:12:09.581Z,15.65
2022-08-01T02:14:38.361Z,15.02
2022-08-01T02:17:05.798Z,15.98
2022-08-01T02:19:38.086Z,15.90
2022-08-01T02:22:18.179Z,23.77
2022-08-01T02:25:00.817Z,21.75
2022-08-01T02:27:59.052Z,17.10
2022-08-01T02:30:32.095Z,21.65
2022-08-01T02:33:15.651Z,21.58
2022-08-01T02:36:32.469Z,22.80
2022-08-01T02:38:39.074Z,17.17
2022-08-01T02:41:10.678Z,23.30
2022-08-01T02:43:47.072Z,20.25
2022-08-01T02:46:29.114Z,19.48
2022-08-01T02:48:59.703Z,16.20
2022-08-01T02:51:28.046Z,17.02
2022-08-01T02:53:57.605Z,18.35
2022-08-01T02:56:36.078Z,15.82
2022-08-01T02:59:10.462Z,19.85
2022-08-01T03:01:42.719Z,13.40
2022-08-01T03:04:11.721Z,13.85
2022-08-01T03:06:40.078Z,18.02
2022-08-01T03:09:13.081Z,19.33
2022-08-01T03:11:43.568Z,11.32
2022-08-01T03:14:12.971Z,8.90
2022-08-01T03:16:43.251Z,10.15
2022-08-01T03:19:12.842Z,10.40
2022-08-01T03:21:41.496Z,15.98
2022-08-01T03:24:11.131Z,10.40
2022-08-01T03:26:40.664Z,9.07
2022-08-01T03:29:13.959Z,9.07
2022-08-01T03:31:44.716Z,10.52
2022-08-01T03:34:12.438Z,13.60
2022-08-01T03:37:07.123Z,9.45
2022-08-01T03:39:41.319Z,14.23
2022-08-01T03:42:15.598Z,8.45
2022-08-01T03:44:45.560Z,11.27
2022-08-01T03:47:14.124Z,10.80
2022-08-01T03:49:46.250Z,9.48
2022-08-01T03:52:15.227Z,8.65
2022-08-01T03:54:47.798Z,7.60
2022-08-01T03:57:35.572Z,7.80
2022-08-01T04:00:08.528Z,7.05
2022-08-01T04:02:36.549Z,8.60
2022-08-01T04:05:04.632Z,9.73
2022-08-01T04:07:33.551Z,10.88
2022-08-01T04:10:00.916Z,10.45
2022-08-01T04:12:28.451Z,8.25
2022-08-01T04:14:55.595Z,8.60
2022-08-01T04:17:22.740Z,10.13
2022-08-01T04:19:50.001Z,9.27
2022-08-01T04:22:17.734Z,6.80
2022-08-01T04:24:56.460Z,8.88
2022-08-01T04:27:50.852Z,7.28
2022-08-01T04:30:27.129Z,11.70
2022-08-01T04:32:58.751Z,10.38
2022-08-01T04:36:03.720Z,7.43
2022-08-01T04:38:20.760Z,11.43
2022-08-01T04:40:49.481Z,9.52
2022-08-01T04:43:16.640Z,6.22
2022-08-01T04:45:46.019Z,6.28
2022-08-01T04:48:16.830Z,9.77
2022-08-01T04:50:44.264Z,6.07
2022-08-01T04:53:19.721Z,7.68
2022-08-01T04:55:47.641Z,7.32
2022-08-01T04:58:18.496Z,7.80
2022-08-01T05:00:47.571Z,8.55
2022-08-01T05:03:15.417Z,5.72
2022-08-01T05:05:42.748Z,7.35
2022-08-01T05:08:10.196Z,8.60
2022-08-01T05:10:37.766Z,10.98
2022-08-01T05:13:05.047Z,7.57
2022-08-01T05:15:32.417Z,7.25
2022-08-01T05:17:59.564Z,9.55
2022-08-01T05:20:26.808Z,9.73
2022-08-01T05:22:54.187Z,6.57
2022-08-01T05:25:56.482Z,9.20
2022-08-01T05:28:09.019Z,9.38
2022-08-01T05:30:36.315Z,11.40
2022-08-01T05:33:03.804Z,12.55
2022-08-01T05:35:48.720Z,7.10
2022-08-01T05:38:17.184Z,8.73
2022-08-01T05:40:44.572Z,8.10
2022-08-01T05:43:11.907Z,7.00
2022-08-01T05:45:39.237Z,7.78
2022-08-01T05:48:06.653Z,7.95
2022-08-01T05:50:34.943Z,12.10
2022-08-01T05:53:02.293Z,13.75
2022-08-01T05:55:29.702Z,7.05
2022-08-01T05:57:57.541Z,9.65
2022-08-01T06:00:24.892Z,7.95
2022-08-01T06:03:01.254Z,8.25
2022-08-01T06:05:28.648Z,6.88
2022-08-01T06:07:55.915Z,8.45
2022-08-01T06:10:23.431Z,6.25
2022-08-01T06:12:51.710Z,8.43
2022-08-01T06:15:18.910Z,6.18
2022-08-01T06:17:46.195Z,6.90
2022-08-01T06:20:13.546Z,11.27
2022-08-01T06:22:40.807Z,8.68
2022-08-01T06:25:09.020Z,8.93
2022-08-01T06:27:36.944Z,9.15
2022-08-01T06:30:05.395Z,7.45
2022-08-01T06:32:32.782Z,8.70
2022-08-01T06:35:00.273Z,9.75
2022-08-01T06:37:32.163Z,13.43
2022-08-01T06:40:17.779Z,8.32
2022-08-01T06:42:46.966Z,7.75
2022-08-01T06:45:16.238Z,13.50
2022-08-01T06:47:44.983Z,7.90
2022-08-01T06:50:17.887Z,8.10
2022-08-01T06:52:45.311Z,5.43
2022-08-01T06:55:12.866Z,5.97
2022-08-01T06:57:51.336Z,5.15
2022-08-01T07:00:22.155Z,7.72
2022-08-01T07:02:54.155Z,6.78
2022-08-01T07:05:22.363Z,2.03
2022-08-01T07:07:49.816Z,3.13
2022-08-01T07:10:17.512Z,3.95
2022-08-01T07:12:45.032Z,3.13
2022-08-01T07:15:12.916Z,1.65
2022-08-01T07:17:42.557Z,3.50
2022-08-01T07:20:13.953Z,1.70
2022-08-01T07:22:44.221Z,5.57
2022-08-01T07:25:15.208Z,4.20
2022-08-01T07:27:42.552Z,2.75
2022-08-01T07:30:10.045Z,1.98
2022-08-01T07:32:37.474Z,3.05
2022-08-01T07:35:05.288Z,2.20
2022-08-01T07:37:42.092Z,3.55
2022-08-01T07:40:17.296Z,1.95
2022-08-01T07:42:46.205Z,3.05
2022-08-01T07:45:14.205Z,5.07
2022-08-01T07:47:41.898Z,2.13
2022-08-01T07:50:09.644Z,3.25
2022-08-01T07:52:37.033Z,1.42
2022-08-01T07:55:04.720Z,3.20
2022-08-01T07:57:32.027Z,3.85
2022-08-01T07:59:59.835Z,2.30
2022-08-01T08:02:27.387Z,1.92
2022-08-01T08:04:54.635Z,1.48
2022-08-01T08:07:22.024Z,3.70
2022-08-01T08:09:51.321Z,2.22
2022-08-01T08:12:18.903Z,1.08
2022-08-01T08:14:56.366Z,6.28
2022-08-01T08:17:25.259Z,2.00
2022-08-01T08:19:52.820Z,5.93
2022-08-01T08:22:20.526Z,8.18
2022-08-01T08:24:47.897Z,3.88
2022-08-01T08:27:16.209Z,2.67
2022-08-01T08:29:43.830Z,2.97
2022-08-01T08:32:12.666Z,3.75
2022-08-01T08:34:39.962Z,5.78
2022-08-01T08:37:07.567Z,2.17
2022-08-01T08:39:41.881Z,2.65
2022-08-01T08:42:11.405Z,2.05
2022-08-01T08:44:43.670Z,5.47
2022-08-01T08:47:19.249Z,7.13
2022-08-01T08:49:49.234Z,4.22
2022-08-01T08:52:18.709Z,3.22
2022-08-01T08:54:48.018Z,6.68
2022-08-01T08:57:16.155Z,4.00
2022-08-01T08:59:46.695Z,6.28
2022-08-01T09:02:14.620Z,2.80
2022-08-01T09:04:42.842Z,4.43
2022-08-01T09:07:12.101Z,6.80
2022-08-01T09:09:41.635Z,2.88
2022-08-01T09:12:09.960Z,7.93
2022-08-01T09:14:48.831Z,3.63
2022-08-01T09:17:17.708Z,3.13
2022-08-01T09:19:52.543Z,2.35
2022-08-01T09:22:24.452Z,4.78
2022-08-01T09:25:07.109Z,5.60
2022-08-01T09:27:35.350Z,10.23
2022-08-01T09:30:12.219Z,3.28
2022-08-01T09:33:06.254Z,5.43
2022-08-01T09:35:43.430Z,9.60
2022-08-01T09:38:25.097Z,6.15
2022-08-01T09:40:58.342Z,7.93
2022-08-01T09:43:28.989Z,5.53
2022-08-01T09:46:00.847Z,10.25
2022-08-01T09:48:29.586Z,10.45
2022-08-01T09:51:04.984Z,4.55
2022-08-01T09:53:51.976Z,5.90
2022-08-01T09:56:21.406Z,4.15
2022-08-01T09:58:59.427Z,11.27
2022-08-01T10:01:37.261Z,6.45
2022-08-01T10:04:17.424Z,4.38
2022-08-01T10:07:02.971Z,5.93
2022-08-01T10:09:40.247Z,5.75
2022-08-01T10:12:15.200Z,3.45
2022-08-01T10:17:20.074Z,5.15
2022-08-01T10:19:50.919Z,5.55
2022-08-01T10:22:21.446Z,6.85
2022-08-01T10:24:51.646Z,6.10
2022-08-01T10:27:35.717Z,3.58
2022-08-01T10:30:19.663Z,6.97
2022-08-01T10:32:53.459Z,8.77
2022-08-01T10:35:45.579Z,6.53
2022-08-01T10:38:13.873Z,4.78
2022-08-01T10:40:43.163Z,4.18
2022-08-01T10:43:21.252Z,2.42
2022-08-01T10:45:50.416Z,6.47
2022-08-01T10:48:31.598Z,5.20
2022-08-01T10:51:18.354Z,2.28
2022-08-01T10:53:53.916Z,3.28
2022-08-01T10:56:26.767Z,3.30
2022-08-01T10:59:06.812Z,8.35
2022-08-01T11:01:44.855Z,6.65
2022-08-01T11:04:17.980Z,5.95
2022-08-01T11:06:48.508Z,8.32
2022-08-01T11:09:16.287Z,9.80
2022-08-01T11:12:13.134Z,3.53
2022-08-01T11:15:00.420Z,2.03
2022-08-01T11:17:49.973Z,7.03
2022-08-01T11:20:31.217Z,5.05
2022-08-01T11:23:14.042Z,8.07
2022-08-01T11:26:04.506Z,5.05
2022-08-01T11:28:35.782Z,4.55
2022-08-01T11:31:13.878Z,2.70
2022-08-01T11:33:47.275Z,1.92
2022-08-01T11:36:18.027Z,2.42
2022-08-01T11:39:13.261Z,3.60
2022-08-01T11:41:42.481Z,4.00
2022-08-01T11:44:19.049Z,2.75
2022-08-01T11:47:07.172Z,2.53
2022-08-01T11:49:57.649Z,4.97
2022-08-01T11:52:30.889Z,4.47
2022-08-01T11:55:10.138Z,2.95
2022-08-01T11:57:39.467Z,2.92
2022-08-01T12:00:15.356Z,2.20
2022-08-01T12:02:46.063Z,3.50
2022-08-01T12:05:16.161Z,2.67
2022-08-01T12:07:44.941Z,5.40
2022-08-01T12:10:17.467Z,6.00
2022-08-01T12:12:52.152Z,6.80
2022-08-01T12:15:24.680Z,2.90
2022-08-01T12:18:00.789Z,2.97
2022-08-01T12:20:34.145Z,4.68
2022-08-01T12:23:07.036Z,4.20
2022-08-01T12:25:34.906Z,4.55
2022-08-01T12:28:20.276Z,2.30
2022-08-01T12:30:49.867Z,5.47
2022-08-01T12:33:20.135Z,3.45
2022-08-01T12:35:48.206Z,2.60
2022-08-01T12:38:24.334Z,6.00
2022-08-01T12:40:53.638Z,8.73
2022-08-01T12:43:27.897Z,8.93
2022-08-01T12:45:58.016Z,5.28
2022-08-01T12:48:26.498Z,2.92
2022-08-01T12:50:54.692Z,4.78
2022-08-01T12:53:22.879Z,8.23
2022-08-01T12:55:58.635Z,5.13
2022-08-01T12:58:34.056Z,3.78
2022-08-01T13:01:10.034Z,5.70
2022-08-01T13:03:38.390Z,6.63
2022-08-01T13:06:17.740Z,8.00
2022-08-01T13:08:47.420Z,5.45
2022-08-01T13:11:17.795Z,3.90
2022-08-01T13:13:51.372Z,5.80
2022-08-01T13:16:30.421Z,5.68
2022-08-01T13:19:07.319Z,4.65
2022-08-01T13:21:54.503Z,5.10
2022-08-01T13:24:29.873Z,6.95
2022-08-01T13:27:05.038Z,6.13
2022-08-01T13:29:32.976Z,3.97
2022-08-01T13:32:01.610Z,3.05
2022-08-01T13:34:35.810Z,4.30
2022-08-01T13:37:03.385Z,5.82
2022-08-01T13:39:43.523Z,2.25
2022-08-01T13:42:19.051Z,5.72
2022-08-01T13:44:47.283Z,9.43
2022-08-01T13:47:15.405Z,4.82
2022-08-01T13:49:43.507Z,5.80
2022-08-01T13:52:11.389Z,7.40
2022-08-01T13:54:38.649Z,3.75
2022-08-01T13:57:06.227Z,4.40
2022-08-01T13:59:34.020Z,4.50
2022-08-01T14:02:01.362Z,5.40
2022-08-01T14:04:28.775Z,5.47
2022-08-01T14:06:56.287Z,3.22
2022-08-01T14:09:26.308Z,5.30
2022-08-01T14:12:00.105Z,2.03
2022-08-01T14:14:27.651Z,3.53
2022-08-01T14:16:55.092Z,3.92
2022-08-01T14:19:37.629Z,5.35
2022-08-01T14:22:07.300Z,7.22
2022-08-01T14:24:34.919Z,4.63
2022-08-01T14:27:03.480Z,5.93
2022-08-01T14:30:02.623Z,9.93
2022-08-01T14:32:18.130Z,5.10
2022-08-01T14:34:49.866Z,7.07
2022-08-01T14:37:17.245Z,2.45
2022-08-01T14:39:53.411Z,3.15
2022-08-01T14:42:21.881Z,3.05
2022-08-01T14:44:50.003Z,4.35
2022-08-01T14:47:21.866Z,10.32
2022-08-01T14:49:50.525Z,3.30
2022-08-01T14:52:18.423Z,5.50
2022-08-01T14:54:45.904Z,3.22
2022-08-01T14:57:13.384Z,6.55
2022-08-01T14:59:40.869Z,4.80
2022-08-01T15:02:08.764Z,3.63
2022-08-01T15:04:39.063Z,4.63
2022-08-01T15:07:06.482Z,1.92
2022-08-01T15:09:33.797Z,7.13
2022-08-01T15:12:01.152Z,3.95
2022-08-01T15:14:47.083Z,2.08
2022-08-01T15:17:14.754Z,4.32
2022-08-01T15:19:43.097Z,3.67
2022-08-01T15:22:12.205Z,5.28
2022-08-01T15:24:39.891Z,2.83
2022-08-01T15:27:07.545Z,4.60
2022-08-01T15:29:35.260Z,4.78
2022-08-01T15:32:05.853Z,8.40
2022-08-01T15:34:34.181Z,6.70
2022-08-01T15:37:01.791Z,5.05
2022-08-01T15:39:29.671Z,5.72
2022-08-01T15:42:00.483Z,4.18
2022-08-01T15:44:27.825Z,3.90
2022-08-01T15:46:55.136Z,7.28
2022-08-01T15:49:25.585Z,37.47
2022-08-01T15:51:52.723Z,7.93
2022-08-01T15:54:20.592Z,5.40
2022-08-01T15:56:47.981Z,2.97
2022-08-01T15:59:15.416Z,4.03
2022-08-01T16:01:43.025Z,1.65
2022-08-01T16:04:10.719Z,4.63
2022-08-01T16:06:38.347Z,4.85
2022-08-01T16:09:05.825Z,5.28
2022-08-01T16:11:33.257Z,6.63
2022-08-01T16:14:01.088Z,3.72
2022-08-01T16:16:28.837Z,6.53
2022-08-01T16:18:57.289Z,4.68
2022-08-01T16:21:25.389Z,4.20
2022-08-01T16:23:53.079Z,5.63
2022-08-01T16:26:27.179Z,3.53
2022-08-01T16:28:54.946Z,2.30
2022-08-01T16:32:07.953Z,2.78
2022-08-01T16:34:09.948Z,3.28
2022-08-01T16:36:41.212Z,5.53
2022-08-01T16:39:08.552Z,7.82
2022-08-01T16:41:37.813Z,9.57
2022-08-01T16:44:06.494Z,6.05
2022-08-01T16:46:33.966Z,5.50
2022-08-01T16:49:01.392Z,10.15
2022-08-01T16:51:28.847Z,4.95
2022-08-01T16:54:00.293Z,4.03
2022-08-01T16:56:27.574Z,7.18
2022-08-01T16:58:54.898Z,2.88
2022-08-01T17:01:57.987Z,8.93
2022-08-01T17:04:12.079Z,4.70
2022-08-01T17:06:39.496Z,10.05
2022-08-01T17:09:06.545Z,4.57
2022-08-01T17:11:33.962Z,5.85
2022-08-01T17:14:01.388Z,4.93
2022-08-01T17:16:28.831Z,3.88
2022-08-01T17:18:56.213Z,9.93
2022-08-01T17:21:23.967Z,3.50
2022-08-01T17:23:51.287Z,3.17
2022-08-01T17:26:21.546Z,3.63
2022-08-01T17:28:49.237Z,8.52
2022-08-01T17:31:16.815Z,8.88
2022-08-01T17:33:45.318Z,5.40
2022-08-01T17:36:21.653Z,10.93
2022-08-01T17:38:48.873Z,11.18
2022-08-01T17:41:16.541Z,15.20
2022-08-01T17:43:44.015Z,3.70
2022-08-01T17:46:11.395Z,4.28
2022-08-01T17:48:38.724Z,3.90
2022-08-01T17:51:06.729Z,4.35
2022-08-01T17:53:34.279Z,4.30
2022-08-01T17:56:02.697Z,6.90
2022-08-01T17:58:49.549Z,3.20
2022-08-01T18:01:19.611Z,9.32
2022-08-01T18:03:47.444Z,4.57
2022-08-01T18:06:23.398Z,7.00
2022-08-01T18:08:53.144Z,5.22
2022-08-01T18:11:24.660Z,7.85
2022-08-01T18:13:54.784Z,11.07
2022-08-01T18:16:22.812Z,6.07
2022-08-01T18:18:50.571Z,5.88
2022-08-01T18:21:17.824Z,6.07
2022-08-01T18:23:51.807Z,7.60
2022-08-01T18:29:04.105Z,7.53
2022-08-01T18:31:31.583Z,7.95
2022-08-01T18:33:58.830Z,5.68
2022-08-01T18:36:33.453Z,3.10
2022-08-01T18:39:10.123Z,6.30
2022-08-01T18:41:39.411Z,4.43
2022-08-01T18:44:08.921Z,10.38
2022-08-01T18:46:37.933Z,6.47
2022-08-01T18:49:07.362Z,9.18
2022-08-01T18:51:38.877Z,23.88
2022-08-01T18:54:10.749Z,6.35
2022-08-01T18:56:38.229Z,7.68
2022-08-01T18:59:05.675Z,8.80
2022-08-01T19:01:33.139Z,8.85
2022-08-01T19:04:00.583Z,7.15
2022-08-01T19:06:28.667Z,6.20
2022-08-01T19:09:01.552Z,9.10
2022-08-01T19:11:31.156Z,11.00
2022-08-01T19:13:58.931Z,5.53
2022-08-01T19:16:27.837Z,6.50
2022-08-01T19:18:55.308Z,6.50
2022-08-01T19:21:22.981Z,5.93
2022-08-01T19:24:08.578Z,7.60
2022-08-01T19:26:37.672Z,10.43
2022-08-01T19:29:14.626Z,10.48
2022-08-01T19:31:48.784Z,14.63
2022-08-01T19:34:18.768Z,12.88
2022-08-01T19:36:48.182Z,10.18
2022-08-01T19:39:18.357Z,11.13
2022-08-01T19:41:46.707Z,5.32
2022-08-01T19:44:17.114Z,8.82
2022-08-01T19:46:44.764Z,7.20
2022-08-01T19:49:20.674Z,7.00
2022-08-01T19:51:51.983Z,9.80
2022-08-01T19:54:21.255Z,6.07
2022-08-01T19:56:51.033Z,13.63
2022-08-01T19:59:23.809Z,6.40
2022-08-01T20:01:52.836Z,14.18
2022-08-01T20:04:21.022Z,4.95
2022-08-01T20:06:48.970Z,6.65
2022-08-01T20:09:16.828Z,10.65
2022-08-01T20:11:46.972Z,7.68
2022-08-01T20:14:18.560Z,11.80
2022-08-01T20:16:46.316Z,10.40
2022-08-01T20:19:14.265Z,9.07
2022-08-01T20:22:03.656Z,8.75
2022-08-01T20:24:38.126Z,11.88
2022-08-01T20:27:08.525Z,10.60
2022-08-01T20:29:37.134Z,7.78
2022-08-01T20:32:05.786Z,4.53
2022-08-01T20:34:39.472Z,12.20
2022-08-01T20:37:12.771Z,10.20
2022-08-01T20:39:43.919Z,11.57
2022-08-01T20:42:12.740Z,8.55
2022-08-01T20:44:41.673Z,7.82
2022-08-01T20:47:09.799Z,11.57
2022-08-01T20:49:37.802Z,5.43
2022-08-01T20:52:11.363Z,8.82
2022-08-01T20:54:41.248Z,5.75
2022-08-01T20:57:17.213Z,16.30
2022-08-01T20:59:56.870Z,7.82
2022-08-01T21:02:52.474Z,8.80
2022-08-01T21:05:31.581Z,11.52
2022-08-01T21:08:13.426Z,9.93
2022-08-01T21:10:46.364Z,7.13
2022-08-01T21:13:24.919Z,17.52
2022-08-01T21:16:04.186Z,9.45
2022-08-01T21:22:00.828Z,7.03
2022-08-01T21:24:41.974Z,9.27
2022-08-01T21:27:10.035Z,11.07
2022-08-01T21:29:38.952Z,9.90
2022-08-01T21:32:11.799Z,7.70
2022-08-01T21:34:39.916Z,10.48
2022-08-01T21:37:10.736Z,4.32
2022-08-01T21:39:39.164Z,9.40
2022-08-01T21:42:09.432Z,18.88
2022-08-01T21:44:42.231Z,7.95
2022-08-01T21:47:11.785Z,7.05
2022-08-01T21:49:40.929Z,10.02
2022-08-01T21:52:21.709Z,4.93
2022-08-01T21:55:10.673Z,7.68
2022-08-01T21:57:53.527Z,6.53
2022-08-01T22:00:25.712Z,7.35
2022-08-01T22:02:57.231Z,10.98
2022-08-01T22:05:51.026Z,6.93
2022-08-01T22:08:21.696Z,9.00
2022-08-01T22:10:54.002Z,5.47
2022-08-01T22:13:21.301Z,10.95
2022-08-01T22:15:48.744Z,13.07
2022-08-01T22:18:16.403Z,11.80
2022-08-01T22:20:46.990Z,12.75
2022-08-01T22:23:15.964Z,5.88
2022-08-01T22:25:44.251Z,5.72
2022-08-01T22:28:17.304Z,7.13
2022-08-01T22:30:44.517Z,11.77
2022-08-01T22:33:16.930Z,10.10
2022-08-01T22:35:53.223Z,9.52
2022-08-01T22:38:22.823Z,8.15
2022-08-01T22:41:14.359Z,10.55
2022-08-01T22:43:57.239Z,11.57
2022-08-01T22:46:52.288Z,10.25
2022-08-01T22:49:35.274Z,19.77
2022-08-01T22:52:12.916Z,5.57
2022-08-01T22:54:43.077Z,7.38
2022-08-01T22:57:39.810Z,8.82
2022-08-01T23:00:12.292Z,8.65
2022-08-01T23:02:54.950Z,9.52
2022-08-01T23:05:25.222Z,3.70
2022-08-01T23:07:53.614Z,7.70
2022-08-01T23:10:26.382Z,11.23
2022-08-01T23:12:55.729Z,8.18
2022-08-01T23:15:26.575Z,12.55
2022-08-01T23:17:54.939Z,8.95
2022-08-01T23:20:22.692Z,10.65
2022-08-01T23:22:51.496Z,10.60
2022-08-01T23:25:19.022Z,9.25
2022-08-01T23:27:51.277Z,7.68
2022-08-01T23:30:34.880Z,11.10
2022-08-01T23:33:03.466Z,6.10
2022-08-01T23:35:31.491Z,6.60
2022-08-01T23:38:03.318Z,10.10
2022-08-01T23:40:32.717Z,10.45
2022-08-01T23:43:01.284Z,7.78
2022-08-01T23:45:28.763Z,10.60
2022-08-01T23:48:16.225Z,7.38
2022-08-01T23:50:43.903Z,5.60
2022-08-01T23:53:11.149Z,15.00
2022-08-01T23:55:40.708Z,5.78
2022-08-01T23:58:11.789Z,10.88
